Terminal Aerodrome Forecast
Issued by NWS Albuquerque, NM

Home | Current Version | Previous Version | Text Only | Print | Product List | Glossary On
Versions: 1 2 3 4 5 6 7 8 9 10 11 12 13 14
000
FTUS45 KABQ 051700 RRA
TAFABQ
TAF
KABQ 051741Z 0518/0618 23015KT P6SM VCSH SCT040 BKN050
     FM052200 26015G25KT P6SM VCTS BKN050CB
      TEMPO 0523/0601 VRB25G35KT 6SM TSRA OVC040CB
     FM060200 26011KT P6SM VCSH SCT025 BKN050
      TEMPO 0608/0612 OVC025
     FM061300 23008KT P6SM SCT040 BKN070=

USA.gov is the U.S. government's official web portal to all federal, state and local government web resources and services.